sensor_id;sensor_type;location;lat;lon;timestamp;temperature;humidity
34833;DHT22;55941;50.800;4.342;2023-06-22T00:00:58;23.30;99.30
34833;DHT22;55941;50.800;4.342;2023-06-22T00:03:25;23.30;99.40
34833;DHT22;55941;50.800;4.342;2023-06-22T00:05:51;23.30;99.30
34833;DHT22;55941;50.800;4.342;2023-06-22T00:08:18;23.30;99.20
34833;DHT22;55941;50.800;4.342;2023-06-22T00:10:46;23.30;99.10
34833;DHT22;55941;50.800;4.342;2023-06-22T00:13:12;23.30;99.50
34833;DHT22;55941;50.800;4.342;2023-06-22T00:15:39;23.40;99.00
34833;DHT22;55941;50.800;4.342;2023-06-22T00:18:10;23.40;98.10
34833;DHT22;55941;50.800;4.342;2023-06-22T00:20:36;23.40;97.90
34833;DHT22;55941;50.800;4.342;2023-06-22T00:23:04;23.50;97.50
34833;DHT22;55941;50.800;4.342;2023-06-22T00:25:36;23.30;97.30
34833;DHT22;55941;50.800;4.342;2023-06-22T00:28:03;23.20;97.00
34833;DHT22;55941;50.800;4.342;2023-06-22T00:30:30;23.20;97.20
34833;DHT22;55941;50.800;4.342;2023-06-22T00:32:55;23.10;97.20
34833;DHT22;55941;50.800;4.342;2023-06-22T00:35:21;23.20;97.20
34833;DHT22;55941;50.800;4.342;2023-06-22T00:37:47;23.20;97.20
34833;DHT22;55941;50.800;4.342;2023-06-22T00:40:12;23.20;97.10
34833;DHT22;55941;50.800;4.342;2023-06-22T00:42:39;23.30;96.90
34833;DHT22;55941;50.800;4.342;2023-06-22T00:45:07;23.30;97.00
34833;DHT22;55941;50.800;4.342;2023-06-22T00:47:34;23.40;96.40
34833;DHT22;55941;50.800;4.342;2023-06-22T00:50:00;23.30;96.80
34833;DHT22;55941;50.800;4.342;2023-06-22T00:52:26;23.20;97.20
34833;DHT22;55941;50.800;4.342;2023-06-22T00:54:56;23.10;97.80
34833;DHT22;55941;50.800;4.342;2023-06-22T00:57:22;23.10;98.20
34833;DHT22;55941;50.800;4.342;2023-06-22T00:59:51;23.30;97.90
34833;DHT22;55941;50.800;4.342;2023-06-22T01:02:16;23.30;97.90
34833;DHT22;55941;50.800;4.342;2023-06-22T01:04:42;23.10;98.20
34833;DHT22;55941;50.800;4.342;2023-06-22T01:10:10;23.00;99.00
34833;DHT22;55941;50.800;4.342;2023-06-22T01:16:14;22.90;99.40
34833;DHT22;55941;50.800;4.342;2023-06-22T01:18:42;23.00;99.50
34833;DHT22;55941;50.800;4.342;2023-06-22T01:21:14;22.90;99.80
34833;DHT22;55941;50.800;4.342;2023-06-22T01:29:21;22.80;99.90
34833;DHT22;55941;50.800;4.342;2023-06-22T01:31:49;22.90;99.90
34833;DHT22;55941;50.800;4.342;2023-06-22T01:34:16;22.90;99.90
34833;DHT22;55941;50.800;4.342;2023-06-22T01:36:43;22.90;99.90
34833;DHT22;55941;50.800;4.342;2023-06-22T01:39:09;23.00;99.90
34833;DHT22;55941;50.800;4.342;2023-06-22T01:41:37;23.00;99.90
34833;DHT22;55941;50.800;4.342;2023-06-22T01:44:07;23.00;99.90
34833;DHT22;55941;50.800;4.342;2023-06-22T01:46:35;23.00;99.90
34833;DHT22;55941;50.800;4.342;2023-06-22T01:49:02;22.90;99.90
34833;DHT22;55941;50.800;4.342;2023-06-22T01:51:28;22.80;99.90
34833;DHT22;55941;50.800;4.342;2023-06-22T01:53:54;22.70;99.90
34833;DHT22;55941;50.800;4.342;2023-06-22T01:56:20;22.70;99.90
34833;DHT22;55941;50.800;4.342;2023-06-22T01:58:57;22.70;99.90
34833;DHT22;55941;50.800;4.342;2023-06-22T02:01:37;22.80;99.90
34833;DHT22;55941;50.800;4.342;2023-06-22T02:04:08;22.80;99.90
34833;DHT22;55941;50.800;4.342;2023-06-22T02:06:38;22.90;99.90
34833;DHT22;55941;50.800;4.342;2023-06-22T02:09:12;22.90;99.90
34833;DHT22;55941;50.800;4.342;2023-06-22T02:11:41;22.70;99.90
34833;DHT22;55941;50.800;4.342;2023-06-22T02:14:08;22.60;99.90
34833;DHT22;55941;50.800;4.342;2023-06-22T02:16:35;22.40;99.90
34833;DHT22;55941;50.800;4.342;2023-06-22T02:19:01;22.40;99.90
34833;DHT22;55941;50.800;4.342;2023-06-22T02:21:32;22.30;99.90
34833;DHT22;55941;50.800;4.342;2023-06-22T02:23:58;22.30;99.90
34833;DHT22;55941;50.800;4.342;2023-06-22T02:26:25;22.30;99.90
34833;DHT22;55941;50.800;4.342;2023-06-22T02:28:51;22.30;99.90
34833;DHT22;55941;50.800;4.342;2023-06-22T02:31:17;22.30;99.90
34833;DHT22;55941;50.800;4.342;2023-06-22T02:33:43;22.30;99.90
34833;DHT22;55941;50.800;4.342;2023-06-22T02:36:10;22.30;99.90
34833;DHT22;55941;50.800;4.342;2023-06-22T02:38:38;22.40;99.90
34833;DHT22;55941;50.800;4.342;2023-06-22T02:41:06;22.30;99.90
34833;DHT22;55941;50.800;4.342;2023-06-22T02:43:32;22.30;99.90
34833;DHT22;55941;50.800;4.342;2023-06-22T02:45:57;22.10;99.90
34833;DHT22;55941;50.800;4.342;2023-06-22T02:48:23;22.10;99.90
34833;DHT22;55941;50.800;4.342;2023-06-22T02:50:49;22.10;99.90
34833;DHT22;55941;50.800;4.342;2023-06-22T02:53:14;22.10;99.90
34833;DHT22;55941;50.800;4.342;2023-06-22T02:55:40;22.00;99.90
34833;DHT22;55941;50.800;4.342;2023-06-22T02:58:06;22.00;99.90
34833;DHT22;55941;50.800;4.342;2023-06-22T03:00:31;22.00;99.90
34833;DHT22;55941;50.800;4.342;2023-06-22T03:02:57;22.00;99.90
34833;DHT22;55941;50.800;4.342;2023-06-22T03:05:23;22.00;99.90
34833;DHT22;55941;50.800;4.342;2023-06-22T03:07:49;22.10;99.90
34833;DHT22;55941;50.800;4.342;2023-06-22T03:10:15;22.10;99.90
34833;DHT22;55941;50.800;4.342;2023-06-22T03:12:42;22.00;99.90
34833;DHT22;55941;50.800;4.342;2023-06-22T03:15:09;21.90;99.90
34833;DHT22;55941;50.800;4.342;2023-06-22T03:17:36;21.90;99.90
34833;DHT22;55941;50.800;4.342;2023-06-22T03:20:04;21.90;99.90
34833;DHT22;55941;50.800;4.342;2023-06-22T03:22:41;22.00;99.90
34833;DHT22;55941;50.800;4.342;2023-06-22T03:25:10;21.90;99.90
34833;DHT22;55941;50.800;4.342;2023-06-22T03:27:41;21.90;99.90
34833;DHT22;55941;50.800;4.342;2023-06-22T03:30:09;21.90;99.90
34833;DHT22;55941;50.800;4.342;2023-06-22T03:32:35;21.90;99.90
34833;DHT22;55941;50.800;4.342;2023-06-22T03:35:01;22.00;99.90
34833;DHT22;55941;50.800;4.342;2023-06-22T03:37:28;22.00;99.90
34833;DHT22;55941;50.800;4.342;2023-06-22T03:39:54;21.80;99.90
34833;DHT22;55941;50.800;4.342;2023-06-22T03:42:20;21.90;99.90
34833;DHT22;55941;50.800;4.342;2023-06-22T03:44:46;21.90;99.90
34833;DHT22;55941;50.800;4.342;2023-06-22T03:47:12;21.90;99.90
34833;DHT22;55941;50.800;4.342;2023-06-22T03:49:37;21.90;99.90
34833;DHT22;55941;50.800;4.342;2023-06-22T03:52:03;21.80;99.90
34833;DHT22;55941;50.800;4.342;2023-06-22T03:54:30;21.70;99.90
34833;DHT22;55941;50.800;4.342;2023-06-22T03:56:59;21.80;99.90
34833;DHT22;55941;50.800;4.342;2023-06-22T03:59:25;21.80;99.90
34833;DHT22;55941;50.800;4.342;2023-06-22T04:01:51;21.80;99.90
34833;DHT22;55941;50.800;4.342;2023-06-22T04:04:18;22.00;99.90
34833;DHT22;55941;50.800;4.342;2023-06-22T04:06:43;22.10;99.90
34833;DHT22;55941;50.800;4.342;2023-06-22T04:09:09;22.00;99.90
34833;DHT22;55941;50.800;4.342;2023-06-22T04:11:35;22.00;99.90
34833;DHT22;55941;50.800;4.342;2023-06-22T04:14:00;22.00;99.90
34833;DHT22;55941;50.800;4.342;2023-06-22T04:16:26;22.00;99.90
34833;DHT22;55941;50.800;4.342;2023-06-22T04:18:52;21.90;99.90
34833;DHT22;55941;50.800;4.342;2023-06-22T04:21:19;21.90;99.90
34833;DHT22;55941;50.800;4.342;2023-06-22T04:23:47;21.80;99.90
34833;DHT22;55941;50.800;4.342;2023-06-22T04:26:13;21.80;99.90
34833;DHT22;55941;50.800;4.342;2023-06-22T04:28:40;21.70;99.90
34833;DHT22;55941;50.800;4.342;2023-06-22T04:31:06;21.80;99.90
34833;DHT22;55941;50.800;4.342;2023-06-22T04:33:32;21.80;99.90
34833;DHT22;55941;50.800;4.342;2023-06-22T04:35:59;21.90;99.90
34833;DHT22;55941;50.800;4.342;2023-06-22T04:38:27;21.90;99.90
34833;DHT22;55941;50.800;4.342;2023-06-22T04:40:53;21.90;99.90
34833;DHT22;55941;50.800;4.342;2023-06-22T04:43:19;21.90;99.90
34833;DHT22;55941;50.800;4.342;2023-06-22T04:45:45;22.00;99.90
34833;DHT22;55941;50.800;4.342;2023-06-22T04:48:11;21.90;99.90
34833;DHT22;55941;50.800;4.342;2023-06-22T04:50:42;21.90;99.90
34833;DHT22;55941;50.800;4.342;2023-06-22T04:53:08;21.90;99.90
34833;DHT22;55941;50.800;4.342;2023-06-22T04:55:35;22.00;99.90
34833;DHT22;55941;50.800;4.342;2023-06-22T04:58:03;22.00;99.90
34833;DHT22;55941;50.800;4.342;2023-06-22T05:00:30;22.00;99.90
34833;DHT22;55941;50.800;4.342;2023-06-22T05:02:57;21.80;99.90
34833;DHT22;55941;50.800;4.342;2023-06-22T05:05:26;21.70;99.90
34833;DHT22;55941;50.800;4.342;2023-06-22T05:07:52;21.80;99.90
34833;DHT22;55941;50.800;4.342;2023-06-22T05:10:25;21.80;99.90
34833;DHT22;55941;50.800;4.342;2023-06-22T05:12:51;21.80;99.90
34833;DHT22;55941;50.800;4.342;2023-06-22T05:15:16;21.90;99.90
34833;DHT22;55941;50.800;4.342;2023-06-22T05:17:44;22.00;99.90
34833;DHT22;55941;50.800;4.342;2023-06-22T05:20:11;21.80;99.90
34833;DHT22;55941;50.800;4.342;2023-06-22T05:22:39;21.70;99.90
34833;DHT22;55941;50.800;4.342;2023-06-22T05:25:09;21.50;99.90
34833;DHT22;55941;50.800;4.342;2023-06-22T05:27:35;21.30;99.90
34833;DHT22;55941;50.800;4.342;2023-06-22T05:30:06;21.30;99.90
34833;DHT22;55941;50.800;4.342;2023-06-22T05:32:32;21.30;99.90
34833;DHT22;55941;50.800;4.342;2023-06-22T05:34:58;21.20;99.90
34833;DHT22;55941;50.800;4.342;2023-06-22T05:37:23;21.20;99.90
34833;DHT22;55941;50.800;4.342;2023-06-22T05:39:49;21.20;99.90
34833;DHT22;55941;50.800;4.342;2023-06-22T05:42:15;21.00;99.90
34833;DHT22;55941;50.800;4.342;2023-06-22T05:44:40;21.00;99.90
34833;DHT22;55941;50.800;4.342;2023-06-22T05:47:06;20.90;99.90
34833;DHT22;55941;50.800;4.342;2023-06-22T05:49:32;20.90;99.90
34833;DHT22;55941;50.800;4.342;2023-06-22T05:51:59;20.90;99.90
34833;DHT22;55941;50.800;4.342;2023-06-22T05:54:27;20.90;99.90
34833;DHT22;55941;50.800;4.342;2023-06-22T05:56:54;20.90;99.90
34833;DHT22;55941;50.800;4.342;2023-06-22T05:59:19;20.90;99.90
34833;DHT22;55941;50.800;4.342;2023-06-22T06:01:45;20.90;99.90
34833;DHT22;55941;50.800;4.342;2023-06-22T06:04:18;20.90;99.90
34833;DHT22;55941;50.800;4.342;2023-06-22T06:06:44;20.90;99.90
34833;DHT22;55941;50.800;4.342;2023-06-22T06:09:09;21.10;99.90
34833;DHT22;55941;50.800;4.342;2023-06-22T06:11:37;21.20;99.90
34833;DHT22;55941;50.800;4.342;2023-06-22T06:14:03;21.20;99.90
34833;DHT22;55941;50.800;4.342;2023-06-22T06:16:29;21.00;99.90
34833;DHT22;55941;50.800;4.342;2023-06-22T06:18:54;20.80;99.90
34833;DHT22;55941;50.800;4.342;2023-06-22T06:21:21;20.80;99.90
34833;DHT22;55941;50.800;4.342;2023-06-22T06:23:47;20.80;99.90
34833;DHT22;55941;50.800;4.342;2023-06-22T06:26:13;20.80;99.90
34833;DHT22;55941;50.800;4.342;2023-06-22T06:28:41;20.80;99.90
34833;DHT22;55941;50.800;4.342;2023-06-22T06:31:06;21.00;99.90
34833;DHT22;55941;50.800;4.342;2023-06-22T06:33:33;21.20;99.90
34833;DHT22;55941;50.800;4.342;2023-06-22T06:35:58;21.30;99.90
34833;DHT22;55941;50.800;4.342;2023-06-22T06:38:27;21.40;99.90
34833;DHT22;55941;50.800;4.342;2023-06-22T06:40:53;21.50;99.90
34833;DHT22;55941;50.800;4.342;2023-06-22T06:43:19;21.70;99.90
34833;DHT22;55941;50.800;4.342;2023-06-22T06:45:45;21.80;99.90
34833;DHT22;55941;50.800;4.342;2023-06-22T06:48:10;21.90;99.90
34833;DHT22;55941;50.800;4.342;2023-06-22T06:50:36;22.10;99.90
34833;DHT22;55941;50.800;4.342;2023-06-22T06:53:02;22.10;99.90
34833;DHT22;55941;50.800;4.342;2023-06-22T06:55:27;22.30;99.90
34833;DHT22;55941;50.800;4.342;2023-06-22T06:57:54;22.40;99.90
34833;DHT22;55941;50.800;4.342;2023-06-22T07:00:20;22.30;99.90
34833;DHT22;55941;50.800;4.342;2023-06-22T07:02:46;22.30;99.90
34833;DHT22;55941;50.800;4.342;2023-06-22T07:05:13;22.20;99.90
34833;DHT22;55941;50.800;4.342;2023-06-22T07:07:39;22.20;99.90
34833;DHT22;55941;50.800;4.342;2023-06-22T07:10:08;22.30;99.90
34833;DHT22;55941;50.800;4.342;2023-06-22T07:12:34;22.20;99.90
34833;DHT22;55941;50.800;4.342;2023-06-22T07:15:05;22.30;99.90
34833;DHT22;55941;50.800;4.342;2023-06-22T07:17:31;22.40;99.90
34833;DHT22;55941;50.800;4.342;2023-06-22T07:19:57;22.40;99.90
34833;DHT22;55941;50.800;4.342;2023-06-22T07:22:23;22.70;99.90
34833;DHT22;55941;50.800;4.342;2023-06-22T07:24:48;22.90;99.90
34833;DHT22;55941;50.800;4.342;2023-06-22T07:27:15;22.80;99.90
34833;DHT22;55941;50.800;4.342;2023-06-22T07:29:44;22.50;99.90
34833;DHT22;55941;50.800;4.342;2023-06-22T07:32:10;22.50;99.90
34833;DHT22;55941;50.800;4.342;2023-06-22T07:34:36;22.60;99.90
34833;DHT22;55941;50.800;4.342;2023-06-22T07:37:03;22.90;99.90
34833;DHT22;55941;50.800;4.342;2023-06-22T07:39:30;23.10;99.90
34833;DHT22;55941;50.800;4.342;2023-06-22T07:41:55;23.10;99.90
34833;DHT22;55941;50.800;4.342;2023-06-22T07:44:21;23.20;99.90
34833;DHT22;55941;50.800;4.342;2023-06-22T07:46:47;23.20;99.90
34833;DHT22;55941;50.800;4.342;2023-06-22T07:49:12;23.20;99.90
34833;DHT22;55941;50.800;4.342;2023-06-22T07:51:38;23.20;99.90
34833;DHT22;55941;50.800;4.342;2023-06-22T07:54:04;23.10;99.90
34833;DHT22;55941;50.800;4.342;2023-06-22T07:56:29;22.90;99.90
34833;DHT22;55941;50.800;4.342;2023-06-22T07:58:55;22.80;99.90
34833;DHT22;55941;50.800;4.342;2023-06-22T08:01:23;22.60;99.90
34833;DHT22;55941;50.800;4.342;2023-06-22T08:03:50;22.60;99.90
34833;DHT22;55941;50.800;4.342;2023-06-22T08:06:16;22.60;99.90
34833;DHT22;55941;50.800;4.342;2023-06-22T08:08:42;22.70;99.90
34833;DHT22;55941;50.800;4.342;2023-06-22T08:11:08;22.80;99.90
34833;DHT22;55941;50.800;4.342;2023-06-22T08:13:34;22.80;99.90
34833;DHT22;55941;50.800;4.342;2023-06-22T08:16:00;22.90;99.90
34833;DHT22;55941;50.800;4.342;2023-06-22T08:18:25;23.00;99.90
34833;DHT22;55941;50.800;4.342;2023-06-22T08:20:51;23.00;99.90
34833;DHT22;55941;50.800;4.342;2023-06-22T08:23:17;23.10;99.90
34833;DHT22;55941;50.800;4.342;2023-06-22T08:25:43;23.10;99.90
34833;DHT22;55941;50.800;4.342;2023-06-22T08:28:09;22.90;99.90
34833;DHT22;55941;50.800;4.342;2023-06-22T08:30:35;22.80;99.90
34833;DHT22;55941;50.800;4.342;2023-06-22T08:33:01;22.90;99.90
34833;DHT22;55941;50.800;4.342;2023-06-22T08:35:26;22.90;99.90
34833;DHT22;55941;50.800;4.342;2023-06-22T08:37:53;23.00;99.90
34833;DHT22;55941;50.800;4.342;2023-06-22T08:40:20;23.00;99.90
34833;DHT22;55941;50.800;4.342;2023-06-22T08:42:46;22.90;99.90
34833;DHT22;55941;50.800;4.342;2023-06-22T08:45:13;22.90;99.90
34833;DHT22;55941;50.800;4.342;2023-06-22T08:47:40;22.80;99.90
34833;DHT22;55941;50.800;4.342;2023-06-22T08:50:07;22.70;99.90
34833;DHT22;55941;50.800;4.342;2023-06-22T08:52:36;22.30;99.90
34833;DHT22;55941;50.800;4.342;2023-06-22T08:55:01;22.30;99.90
34833;DHT22;55941;50.800;4.342;2023-06-22T08:57:28;22.20;99.90
34833;DHT22;55941;50.800;4.342;2023-06-22T08:59:54;22.30;99.90
34833;DHT22;55941;50.800;4.342;2023-06-22T09:02:24;22.40;99.90
34833;DHT22;55941;50.800;4.342;2023-06-22T09:04:50;22.50;99.90
34833;DHT22;55941;50.800;4.342;2023-06-22T09:07:21;22.50;99.90
34833;DHT22;55941;50.800;4.342;2023-06-22T09:09:48;22.50;99.90
34833;DHT22;55941;50.800;4.342;2023-06-22T09:12:15;22.70;99.90
34833;DHT22;55941;50.800;4.342;2023-06-22T09:14:41;22.50;99.90
34833;DHT22;55941;50.800;4.342;2023-06-22T09:17:06;22.70;99.90
34833;DHT22;55941;50.800;4.342;2023-06-22T09:19:32;22.60;99.90
34833;DHT22;55941;50.800;4.342;2023-06-22T09:21:58;22.70;99.90
34833;DHT22;55941;50.800;4.342;2023-06-22T09:24:25;22.70;99.90
34833;DHT22;55941;50.800;4.342;2023-06-22T09:26:51;22.80;99.90
34833;DHT22;55941;50.800;4.342;2023-06-22T09:29:17;22.90;99.90
34833;DHT22;55941;50.800;4.342;2023-06-22T09:31:43;22.80;99.90
34833;DHT22;55941;50.800;4.342;2023-06-22T09:34:09;22.80;99.90
34833;DHT22;55941;50.800;4.342;2023-06-22T09:36:35;23.00;99.90
34833;DHT22;55941;50.800;4.342;2023-06-22T09:39:03;22.80;99.90
34833;DHT22;55941;50.800;4.342;2023-06-22T09:41:31;22.80;99.90
34833;DHT22;55941;50.800;4.342;2023-06-22T09:43:57;22.70;99.90
34833;DHT22;55941;50.800;4.342;2023-06-22T09:46:23;22.60;99.90
34833;DHT22;55941;50.800;4.342;2023-06-22T09:48:50;22.60;99.90
34833;DHT22;55941;50.800;4.342;2023-06-22T09:51:16;22.40;99.90
34833;DHT22;55941;50.800;4.342;2023-06-22T09:53:42;22.20;99.90
34833;DHT22;55941;50.800;4.342;2023-06-22T09:56:08;21.80;99.90
34833;DHT22;55941;50.800;4.342;2023-06-22T09:58:42;21.50;99.90
34833;DHT22;55941;50.800;4.342;2023-06-22T10:01:08;21.20;99.90
34833;DHT22;55941;50.800;4.342;2023-06-22T10:03:33;21.00;99.90
34833;DHT22;55941;50.800;4.342;2023-06-22T10:06:01;20.90;99.90
34833;DHT22;55941;50.800;4.342;2023-06-22T10:08:27;20.80;99.90
34833;DHT22;55941;50.800;4.342;2023-06-22T10:10:53;20.70;99.90
34833;DHT22;55941;50.800;4.342;2023-06-22T10:13:19;20.70;99.90
34833;DHT22;55941;50.800;4.342;2023-06-22T10:15:45;20.40;99.90
34833;DHT22;55941;50.800;4.342;2023-06-22T10:18:17;20.10;99.90
34833;DHT22;55941;50.800;4.342;2023-06-22T10:20:49;20.30;99.90
34833;DHT22;55941;50.800;4.342;2023-06-22T10:23:18;20.20;99.90
34833;DHT22;55941;50.800;4.342;2023-06-22T10:25:47;20.20;99.90
34833;DHT22;55941;50.800;4.342;2023-06-22T10:28:13;20.20;99.90
34833;DHT22;55941;50.800;4.342;2023-06-22T10:30:43;20.30;99.90
34833;DHT22;55941;50.800;4.342;2023-06-22T10:33:10;20.20;99.90
34833;DHT22;55941;50.800;4.342;2023-06-22T10:35:37;20.10;99.90
34833;DHT22;55941;50.800;4.342;2023-06-22T10:38:04;20.00;99.90
34833;DHT22;55941;50.800;4.342;2023-06-22T10:40:30;20.00;99.90
34833;DHT22;55941;50.800;4.342;2023-06-22T10:42:55;19.90;99.90
34833;DHT22;55941;50.800;4.342;2023-06-22T10:45:22;19.80;99.90
34833;DHT22;55941;50.800;4.342;2023-06-22T10:47:48;19.60;99.90
34833;DHT22;55941;50.800;4.342;2023-06-22T10:50:14;19.70;99.90
34833;DHT22;55941;50.800;4.342;2023-06-22T10:52:40;19.70;99.90
34833;DHT22;55941;50.800;4.342;2023-06-22T10:55:10;19.90;99.90
34833;DHT22;55941;50.800;4.342;2023-06-22T10:57:36;19.80;99.90
34833;DHT22;55941;50.800;4.342;2023-06-22T11:00:02;19.80;99.90
34833;DHT22;55941;50.800;4.342;2023-06-22T11:02:31;19.80;99.90
34833;DHT22;55941;50.800;4.342;2023-06-22T11:04:57;19.70;99.90
34833;DHT22;55941;50.800;4.342;2023-06-22T11:07:26;19.70;99.90
34833;DHT22;55941;50.800;4.342;2023-06-22T11:09:53;19.80;99.90
34833;DHT22;55941;50.800;4.342;2023-06-22T11:12:18;19.90;99.90
34833;DHT22;55941;50.800;4.342;2023-06-22T11:14:44;19.90;99.90
34833;DHT22;55941;50.800;4.342;2023-06-22T11:17:10;19.90;99.90
34833;DHT22;55941;50.800;4.342;2023-06-22T11:19:35;19.80;99.90
34833;DHT22;55941;50.800;4.342;2023-06-22T11:22:02;19.90;99.90
34833;DHT22;55941;50.800;4.342;2023-06-22T11:24:27;20.10;99.90
34833;DHT22;55941;50.800;4.342;2023-06-22T11:26:53;20.10;99.90
34833;DHT22;55941;50.800;4.342;2023-06-22T11:29:19;20.20;99.90
34833;DHT22;55941;50.800;4.342;2023-06-22T11:31:44;20.20;99.90
34833;DHT22;55941;50.800;4.342;2023-06-22T11:34:10;20.40;99.90
34833;DHT22;55941;50.800;4.342;2023-06-22T11:36:36;20.50;99.90
34833;DHT22;55941;50.800;4.342;2023-06-22T11:39:02;20.60;99.90
34833;DHT22;55941;50.800;4.342;2023-06-22T11:41:28;20.80;99.90
34833;DHT22;55941;50.800;4.342;2023-06-22T11:43:54;20.80;99.90
34833;DHT22;55941;50.800;4.342;2023-06-22T11:46:20;20.50;99.90
34833;DHT22;55941;50.800;4.342;2023-06-22T11:48:46;20.60;99.90
34833;DHT22;55941;50.800;4.342;2023-06-22T11:51:11;20.60;99.90
34833;DHT22;55941;50.800;4.342;2023-06-22T11:53:37;20.70;99.90
34833;DHT22;55941;50.800;4.342;2023-06-22T11:56:03;20.80;99.90
34833;DHT22;55941;50.800;4.342;2023-06-22T11:58:29;20.60;99.90
34833;DHT22;55941;50.800;4.342;2023-06-22T12:00:54;20.30;99.90
34833;DHT22;55941;50.800;4.342;2023-06-22T12:03:20;20.20;99.90
34833;DHT22;55941;50.800;4.342;2023-06-22T12:05:51;20.20;99.90
34833;DHT22;55941;50.800;4.342;2023-06-22T12:08:19;20.00;99.90
34833;DHT22;55941;50.800;4.342;2023-06-22T12:10:45;20.20;99.90
34833;DHT22;55941;50.800;4.342;2023-06-22T12:13:11;20.20;99.90
34833;DHT22;55941;50.800;4.342;2023-06-22T12:15:36;20.10;99.90
34833;DHT22;55941;50.800;4.342;2023-06-22T12:18:05;20.00;99.90
34833;DHT22;55941;50.800;4.342;2023-06-22T12:20:31;19.90;99.90
34833;DHT22;55941;50.800;4.342;2023-06-22T12:22:57;19.90;99.90
34833;DHT22;55941;50.800;4.342;2023-06-22T12:25:23;19.80;99.90
34833;DHT22;55941;50.800;4.342;2023-06-22T12:27:49;19.70;99.90
34833;DHT22;55941;50.800;4.342;2023-06-22T12:30:16;19.60;99.90
34833;DHT22;55941;50.800;4.342;2023-06-22T12:32:42;19.60;99.90
34833;DHT22;55941;50.800;4.342;2023-06-22T12:35:07;19.60;99.90
34833;DHT22;55941;50.800;4.342;2023-06-22T12:37:41;19.70;99.90
34833;DHT22;55941;50.800;4.342;2023-06-22T12:40:08;19.80;99.90
34833;DHT22;55941;50.800;4.342;2023-06-22T12:42:34;19.70;99.90
34833;DHT22;55941;50.800;4.342;2023-06-22T12:45:00;19.80;99.90
34833;DHT22;55941;50.800;4.342;2023-06-22T12:47:28;19.70;99.90
34833;DHT22;55941;50.800;4.342;2023-06-22T12:49:53;19.80;99.90
34833;DHT22;55941;50.800;4.342;2023-06-22T12:52:19;19.70;99.90
34833;DHT22;55941;50.800;4.342;2023-06-22T12:54:45;19.60;99.90
34833;DHT22;55941;50.800;4.342;2023-06-22T12:57:10;19.60;99.90
34833;DHT22;55941;50.800;4.342;2023-06-22T12:59:36;19.50;99.90
34833;DHT22;55941;50.800;4.342;2023-06-22T13:02:01;19.50;99.90
34833;DHT22;55941;50.800;4.342;2023-06-22T13:04:28;19.40;99.90
34833;DHT22;55941;50.800;4.342;2023-06-22T13:06:54;19.40;99.90
34833;DHT22;55941;50.800;4.342;2023-06-22T13:09:22;19.50;99.90
34833;DHT22;55941;50.800;4.342;2023-06-22T13:11:47;19.60;99.90
34833;DHT22;55941;50.800;4.342;2023-06-22T13:14:13;19.70;99.90
34833;DHT22;55941;50.800;4.342;2023-06-22T13:16:39;19.70;99.90
34833;DHT22;55941;50.800;4.342;2023-06-22T13:19:04;19.70;99.90
34833;DHT22;55941;50.800;4.342;2023-06-22T13:21:30;19.70;99.90
34833;DHT22;55941;50.800;4.342;2023-06-22T13:23:58;19.90;99.90
34833;DHT22;55941;50.800;4.342;2023-06-22T13:26:24;19.90;99.90
34833;DHT22;55941;50.800;4.342;2023-06-22T13:28:50;19.90;99.90
34833;DHT22;55941;50.800;4.342;2023-06-22T13:31:15;20.10;99.90
34833;DHT22;55941;50.800;4.342;2023-06-22T13:33:41;20.10;99.90
34833;DHT22;55941;50.800;4.342;2023-06-22T13:36:07;20.00;99.90
34833;DHT22;55941;50.800;4.342;2023-06-22T13:38:35;19.90;99.90
34833;DHT22;55941;50.800;4.342;2023-06-22T13:41:07;19.90;99.90
34833;DHT22;55941;50.800;4.342;2023-06-22T13:43:32;19.80;99.90
34833;DHT22;55941;50.800;4.342;2023-06-22T13:46:00;19.80;99.90
34833;DHT22;55941;50.800;4.342;2023-06-22T13:48:26;19.80;99.90
34833;DHT22;55941;50.800;4.342;2023-06-22T13:50:54;19.80;99.90
34833;DHT22;55941;50.800;4.342;2023-06-22T13:53:20;19.80;99.90
34833;DHT22;55941;50.800;4.342;2023-06-22T13:55:46;19.70;99.90
34833;DHT22;55941;50.800;4.342;2023-06-22T13:58:13;19.70;99.90
34833;DHT22;55941;50.800;4.342;2023-06-22T14:00:39;19.60;99.90
34833;DHT22;55941;50.800;4.342;2023-06-22T14:03:04;19.60;99.90
34833;DHT22;55941;50.800;4.342;2023-06-22T14:05:31;19.50;99.90
34833;DHT22;55941;50.800;4.342;2023-06-22T14:07:57;19.50;99.90
34833;DHT22;55941;50.800;4.342;2023-06-22T14:10:23;19.60;99.90
34833;DHT22;55941;50.800;4.342;2023-06-22T14:12:49;19.60;99.90
34833;DHT22;55941;50.800;4.342;2023-06-22T14:15:14;19.60;99.90
34833;DHT22;55941;50.800;4.342;2023-06-22T14:17:40;19.70;99.90
34833;DHT22;55941;50.800;4.342;2023-06-22T14:20:06;19.50;99.90
34833;DHT22;55941;50.800;4.342;2023-06-22T14:22:33;19.50;99.90
34833;DHT22;55941;50.800;4.342;2023-06-22T14:25:00;19.50;99.90
34833;DHT22;55941;50.800;4.342;2023-06-22T14:27:27;19.60;99.90
34833;DHT22;55941;50.800;4.342;2023-06-22T14:29:53;19.60;99.90
34833;DHT22;55941;50.800;4.342;2023-06-22T14:32:21;19.60;99.90
34833;DHT22;55941;50.800;4.342;2023-06-22T14:34:47;19.60;99.90
34833;DHT22;55941;50.800;4.342;2023-06-22T14:37:12;19.60;99.90
34833;DHT22;55941;50.800;4.342;2023-06-22T14:39:38;19.70;99.90
34833;DHT22;55941;50.800;4.342;2023-06-22T14:42:05;19.80;99.90
34833;DHT22;55941;50.800;4.342;2023-06-22T14:44:31;19.90;99.90
34833;DHT22;55941;50.800;4.342;2023-06-22T14:46:57;19.80;99.90
34833;DHT22;55941;50.800;4.342;2023-06-22T14:49:23;19.70;99.90
34833;DHT22;55941;50.800;4.342;2023-06-22T14:51:49;19.60;99.90
34833;DHT22;55941;50.800;4.342;2023-06-22T14:54:14;19.60;99.90
34833;DHT22;55941;50.800;4.342;2023-06-22T14:56:40;19.70;99.90
34833;DHT22;55941;50.800;4.342;2023-06-22T14:59:06;19.80;99.90
34833;DHT22;55941;50.800;4.342;2023-06-22T15:01:32;19.90;99.90
34833;DHT22;55941;50.800;4.342;2023-06-22T15:03:58;19.80;99.90
34833;DHT22;55941;50.800;4.342;2023-06-22T15:06:24;19.80;99.90
34833;DHT22;55941;50.800;4.342;2023-06-22T15:08:51;19.80;99.90
34833;DHT22;55941;50.800;4.342;2023-06-22T15:11:17;19.90;99.90
34833;DHT22;55941;50.800;4.342;2023-06-22T15:13:42;19.90;99.90
34833;DHT22;55941;50.800;4.342;2023-06-22T15:16:09;19.90;99.90
34833;DHT22;55941;50.800;4.342;2023-06-22T15:18:36;20.00;99.90
34833;DHT22;55941;50.800;4.342;2023-06-22T15:21:02;20.00;99.90
34833;DHT22;55941;50.800;4.342;2023-06-22T15:23:29;20.10;99.90
34833;DHT22;55941;50.800;4.342;2023-06-22T15:25:55;20.10;99.90
34833;DHT22;55941;50.800;4.342;2023-06-22T15:28:21;20.10;99.90
34833;DHT22;55941;50.800;4.342;2023-06-22T15:30:51;20.10;99.90
34833;DHT22;55941;50.800;4.342;2023-06-22T15:33:19;20.10;99.90
34833;DHT22;55941;50.800;4.342;2023-06-22T15:35:46;20.10;99.90
34833;DHT22;55941;50.800;4.342;2023-06-22T15:38:12;20.10;99.90